sensor_id;sensor_type;location;lat;lon;timestamp;temperature;humidity
45953;DHT22;31662;52.262;10.522;2023-08-31T00:01:31;16.20;99.90
45953;DHT22;31662;52.262;10.522;2023-08-31T00:03:58;16.10;99.90
45953;DHT22;31662;52.262;10.522;2023-08-31T00:06:25;16.10;99.90
45953;DHT22;31662;52.262;10.522;2023-08-31T00:08:50;16.00;99.90
45953;DHT22;31662;52.262;10.522;2023-08-31T00:11:16;15.90;99.90
45953;DHT22;31662;52.262;10.522;2023-08-31T00:13:41;15.90;99.90
45953;DHT22;31662;52.262;10.522;2023-08-31T00:16:08;15.90;99.90
45953;DHT22;31662;52.262;10.522;2023-08-31T00:18:35;16.00;99.90
45953;DHT22;31662;52.262;10.522;2023-08-31T00:21:02;16.00;99.90
45953;DHT22;31662;52.262;10.522;2023-08-31T00:23:28;15.90;99.90
45953;DHT22;31662;52.262;10.522;2023-08-31T00:25:54;15.90;99.90
45953;DHT22;31662;52.262;10.522;2023-08-31T00:28:21;15.80;99.90
45953;DHT22;31662;52.262;10.522;2023-08-31T00:30:47;15.80;99.90
45953;DHT22;31662;52.262;10.522;2023-08-31T00:33:14;15.80;99.90
45953;DHT22;31662;52.262;10.522;2023-08-31T00:35:40;15.80;99.90
45953;DHT22;31662;52.262;10.522;2023-08-31T00:38:11;15.80;99.90
45953;DHT22;31662;52.262;10.522;2023-08-31T00:40:43;15.90;99.90
45953;DHT22;31662;52.262;10.522;2023-08-31T00:43:13;15.80;99.90
45953;DHT22;31662;52.262;10.522;2023-08-31T00:45:44;15.80;99.90
45953;DHT22;31662;52.262;10.522;2023-08-31T00:48:10;15.70;99.90
45953;DHT22;31662;52.262;10.522;2023-08-31T00:50:37;15.80;99.90
45953;DHT22;31662;52.262;10.522;2023-08-31T00:53:03;15.70;99.90
45953;DHT22;31662;52.262;10.522;2023-08-31T00:55:29;15.70;99.90
45953;DHT22;31662;52.262;10.522;2023-08-31T00:57:55;15.70;99.90
45953;DHT22;31662;52.262;10.522;2023-08-31T01:00:23;15.60;99.90
45953;DHT22;31662;52.262;10.522;2023-08-31T01:03:01;15.60;99.90
45953;DHT22;31662;52.262;10.522;2023-08-31T01:05:50;15.50;99.90
45953;DHT22;31662;52.262;10.522;2023-08-31T01:14:00;15.40;99.90
45953;DHT22;31662;52.262;10.522;2023-08-31T01:16:28;15.40;99.90
45953;DHT22;31662;52.262;10.522;2023-08-31T01:18:55;15.20;99.90
45953;DHT22;31662;52.262;10.522;2023-08-31T01:21:27;15.20;99.90
45953;DHT22;31662;52.262;10.522;2023-08-31T01:23:56;15.10;99.90
45953;DHT22;31662;52.262;10.522;2023-08-31T01:26:23;15.20;99.90
45953;DHT22;31662;52.262;10.522;2023-08-31T01:28:50;15.30;99.90
45953;DHT22;31662;52.262;10.522;2023-08-31T01:31:17;15.10;99.90
45953;DHT22;31662;52.262;10.522;2023-08-31T01:33:43;15.10;99.90
45953;DHT22;31662;52.262;10.522;2023-08-31T01:36:31;15.10;99.90
45953;DHT22;31662;52.262;10.522;2023-08-31T01:39:06;15.10;99.90
45953;DHT22;31662;52.262;10.522;2023-08-31T01:41:37;15.10;99.90
45953;DHT22;31662;52.262;10.522;2023-08-31T01:44:04;15.10;99.90
45953;DHT22;31662;52.262;10.522;2023-08-31T01:46:31;15.10;99.90
45953;DHT22;31662;52.262;10.522;2023-08-31T01:48:56;15.10;99.90
45953;DHT22;31662;52.262;10.522;2023-08-31T01:51:22;15.10;99.90
45953;DHT22;31662;52.262;10.522;2023-08-31T01:53:48;15.10;99.90
45953;DHT22;31662;52.262;10.522;2023-08-31T01:56:13;15.20;99.90
45953;DHT22;31662;52.262;10.522;2023-08-31T01:58:39;15.20;99.90
45953;DHT22;31662;52.262;10.522;2023-08-31T02:01:04;15.10;99.90
45953;DHT22;31662;52.262;10.522;2023-08-31T02:03:30;15.20;99.90
45953;DHT22;31662;52.262;10.522;2023-08-31T02:05:55;15.10;99.90
45953;DHT22;31662;52.262;10.522;2023-08-31T02:08:21;15.00;99.90
45953;DHT22;31662;52.262;10.522;2023-08-31T02:10:47;15.00;99.90
45953;DHT22;31662;52.262;10.522;2023-08-31T02:13:14;15.00;99.90
45953;DHT22;31662;52.262;10.522;2023-08-31T02:15:41;15.00;99.90
45953;DHT22;31662;52.262;10.522;2023-08-31T02:18:07;14.80;99.90
45953;DHT22;31662;52.262;10.522;2023-08-31T02:20:33;14.80;99.90
45953;DHT22;31662;52.262;10.522;2023-08-31T02:22:59;14.70;99.90
45953;DHT22;31662;52.262;10.522;2023-08-31T02:25:25;14.70;99.90
45953;DHT22;31662;52.262;10.522;2023-08-31T02:27:53;14.70;99.90
45953;DHT22;31662;52.262;10.522;2023-08-31T02:30:19;14.70;99.90
45953;DHT22;31662;52.262;10.522;2023-08-31T02:32:44;14.70;99.90
45953;DHT22;31662;52.262;10.522;2023-08-31T02:35:10;14.70;99.90
45953;DHT22;31662;52.262;10.522;2023-08-31T02:37:37;14.70;99.90
45953;DHT22;31662;52.262;10.522;2023-08-31T02:40:04;14.70;99.90
45953;DHT22;31662;52.262;10.522;2023-08-31T02:42:29;14.70;99.90
45953;DHT22;31662;52.262;10.522;2023-08-31T02:44:55;14.60;99.90
45953;DHT22;31662;52.262;10.522;2023-08-31T02:47:21;14.60;99.90
45953;DHT22;31662;52.262;10.522;2023-08-31T02:49:46;14.70;99.90
45953;DHT22;31662;52.262;10.522;2023-08-31T02:52:13;14.60;99.90
45953;DHT22;31662;52.262;10.522;2023-08-31T02:54:38;14.60;99.90
45953;DHT22;31662;52.262;10.522;2023-08-31T02:57:04;14.60;99.90
45953;DHT22;31662;52.262;10.522;2023-08-31T02:59:30;14.60;99.90
45953;DHT22;31662;52.262;10.522;2023-08-31T03:01:55;14.50;99.90
45953;DHT22;31662;52.262;10.522;2023-08-31T03:04:21;14.50;99.90
45953;DHT22;31662;52.262;10.522;2023-08-31T03:06:47;14.50;99.90
45953;DHT22;31662;52.262;10.522;2023-08-31T03:09:12;14.60;99.90
45953;DHT22;31662;52.262;10.522;2023-08-31T03:11:38;14.60;99.90
45953;DHT22;31662;52.262;10.522;2023-08-31T03:14:04;14.60;99.90
45953;DHT22;31662;52.262;10.522;2023-08-31T03:16:29;14.60;99.90
45953;DHT22;31662;52.262;10.522;2023-08-31T03:18:55;14.50;99.90
45953;DHT22;31662;52.262;10.522;2023-08-31T03:21:21;14.50;99.90
45953;DHT22;31662;52.262;10.522;2023-08-31T03:23:46;14.50;99.90
45953;DHT22;31662;52.262;10.522;2023-08-31T03:26:12;14.50;99.90
45953;DHT22;31662;52.262;10.522;2023-08-31T03:28:38;14.50;99.90
45953;DHT22;31662;52.262;10.522;2023-08-31T03:31:05;14.50;99.90
45953;DHT22;31662;52.262;10.522;2023-08-31T03:33:31;14.50;99.90
45953;DHT22;31662;52.262;10.522;2023-08-31T03:36:01;14.40;99.90
45953;DHT22;31662;52.262;10.522;2023-08-31T03:38:27;14.40;99.90
45953;DHT22;31662;52.262;10.522;2023-08-31T03:40:56;14.50;99.90
45953;DHT22;31662;52.262;10.522;2023-08-31T03:43:22;14.50;99.90
45953;DHT22;31662;52.262;10.522;2023-08-31T03:45:48;14.50;99.90
45953;DHT22;31662;52.262;10.522;2023-08-31T03:48:14;14.40;99.90
45953;DHT22;31662;52.262;10.522;2023-08-31T03:50:40;14.40;99.90
45953;DHT22;31662;52.262;10.522;2023-08-31T03:53:05;14.40;99.90
45953;DHT22;31662;52.262;10.522;2023-08-31T03:55:31;14.50;99.90
45953;DHT22;31662;52.262;10.522;2023-08-31T03:57:56;14.40;99.90
45953;DHT22;31662;52.262;10.522;2023-08-31T04:00:23;14.40;99.90
45953;DHT22;31662;52.262;10.522;2023-08-31T04:02:49;14.40;99.90
45953;DHT22;31662;52.262;10.522;2023-08-31T04:05:14;14.40;99.90
45953;DHT22;31662;52.262;10.522;2023-08-31T04:07:41;14.40;99.90
45953;DHT22;31662;52.262;10.522;2023-08-31T04:10:07;14.40;99.90
45953;DHT22;31662;52.262;10.522;2023-08-31T04:12:33;14.30;99.90
45953;DHT22;31662;52.262;10.522;2023-08-31T04:15:00;14.10;99.90
45953;DHT22;31662;52.262;10.522;2023-08-31T04:17:25;13.80;99.90
45953;DHT22;31662;52.262;10.522;2023-08-31T04:19:51;13.50;99.90
45953;DHT22;31662;52.262;10.522;2023-08-31T04:22:17;13.20;99.90
45953;DHT22;31662;52.262;10.522;2023-08-31T04:24:43;13.00;99.90
45953;DHT22;31662;52.262;10.522;2023-08-31T04:27:08;12.90;99.90
45953;DHT22;31662;52.262;10.522;2023-08-31T04:29:34;12.80;99.90
45953;DHT22;31662;52.262;10.522;2023-08-31T04:31:59;12.80;99.90
45953;DHT22;31662;52.262;10.522;2023-08-31T04:34:25;12.70;99.90
45953;DHT22;31662;52.262;10.522;2023-08-31T04:36:51;12.70;99.90
45953;DHT22;31662;52.262;10.522;2023-08-31T04:39:17;12.60;99.90
45953;DHT22;31662;52.262;10.522;2023-08-31T04:41:43;12.60;99.90
45953;DHT22;31662;52.262;10.522;2023-08-31T04:44:08;12.60;99.90
45953;DHT22;31662;52.262;10.522;2023-08-31T04:46:34;12.60;99.90
45953;DHT22;31662;52.262;10.522;2023-08-31T04:49:00;12.60;99.90
45953;DHT22;31662;52.262;10.522;2023-08-31T04:51:36;12.60;99.90
45953;DHT22;31662;52.262;10.522;2023-08-31T04:54:07;12.60;99.90
45953;DHT22;31662;52.262;10.522;2023-08-31T04:56:33;12.60;99.90
45953;DHT22;31662;52.262;10.522;2023-08-31T04:58:59;12.70;99.90
45953;DHT22;31662;52.262;10.522;2023-08-31T05:01:25;12.80;99.90
45953;DHT22;31662;52.262;10.522;2023-08-31T05:03:51;12.80;99.90
45953;DHT22;31662;52.262;10.522;2023-08-31T05:06:16;12.80;99.90
45953;DHT22;31662;52.262;10.522;2023-08-31T05:08:42;12.80;99.90
45953;DHT22;31662;52.262;10.522;2023-08-31T05:11:08;12.80;99.90
45953;DHT22;31662;52.262;10.522;2023-08-31T05:13:34;12.80;99.90
45953;DHT22;31662;52.262;10.522;2023-08-31T05:16:00;12.80;99.90
45953;DHT22;31662;52.262;10.522;2023-08-31T05:18:25;12.80;99.90
45953;DHT22;31662;52.262;10.522;2023-08-31T05:20:51;12.80;99.90
45953;DHT22;31662;52.262;10.522;2023-08-31T05:23:17;12.80;99.90
45953;DHT22;31662;52.262;10.522;2023-08-31T05:25:43;12.80;99.90
45953;DHT22;31662;52.262;10.522;2023-08-31T05:28:09;12.90;99.90
45953;DHT22;31662;52.262;10.522;2023-08-31T05:30:34;12.90;99.90
45953;DHT22;31662;52.262;10.522;2023-08-31T05:33:00;13.10;99.90
45953;DHT22;31662;52.262;10.522;2023-08-31T05:35:26;13.10;99.90
45953;DHT22;31662;52.262;10.522;2023-08-31T05:37:51;13.20;99.90
45953;DHT22;31662;52.262;10.522;2023-08-31T05:40:17;13.20;99.90
45953;DHT22;31662;52.262;10.522;2023-08-31T05:42:43;13.30;99.90
45953;DHT22;31662;52.262;10.522;2023-08-31T05:45:09;13.40;99.90
45953;DHT22;31662;52.262;10.522;2023-08-31T05:47:35;13.60;99.90
45953;DHT22;31662;52.262;10.522;2023-08-31T05:50:01;13.70;99.90
45953;DHT22;31662;52.262;10.522;2023-08-31T05:52:27;13.80;99.90
45953;DHT22;31662;52.262;10.522;2023-08-31T05:54:52;13.90;99.90
45953;DHT22;31662;52.262;10.522;2023-08-31T05:57:21;13.90;99.90
45953;DHT22;31662;52.262;10.522;2023-08-31T05:59:48;14.00;99.90
45953;DHT22;31662;52.262;10.522;2023-08-31T06:02:13;13.90;99.90
45953;DHT22;31662;52.262;10.522;2023-08-31T06:04:39;13.90;99.90
45953;DHT22;31662;52.262;10.522;2023-08-31T06:07:05;13.90;99.90
45953;DHT22;31662;52.262;10.522;2023-08-31T06:09:30;13.90;99.90
45953;DHT22;31662;52.262;10.522;2023-08-31T06:11:56;13.90;99.90
45953;DHT22;31662;52.262;10.522;2023-08-31T06:14:21;13.80;99.90
45953;DHT22;31662;52.262;10.522;2023-08-31T06:16:47;13.80;99.90
45953;DHT22;31662;52.262;10.522;2023-08-31T06:19:12;13.70;99.90
45953;DHT22;31662;52.262;10.522;2023-08-31T06:21:41;13.60;99.90
45953;DHT22;31662;52.262;10.522;2023-08-31T06:24:07;13.60;99.90
45953;DHT22;31662;52.262;10.522;2023-08-31T06:26:35;13.60;99.90
45953;DHT22;31662;52.262;10.522;2023-08-31T06:29:01;13.60;99.90
45953;DHT22;31662;52.262;10.522;2023-08-31T06:31:26;13.70;99.90
45953;DHT22;31662;52.262;10.522;2023-08-31T06:33:52;13.80;99.90
45953;DHT22;31662;52.262;10.522;2023-08-31T06:36:17;13.90;99.90
45953;DHT22;31662;52.262;10.522;2023-08-31T06:38:43;13.90;99.90
45953;DHT22;31662;52.262;10.522;2023-08-31T06:41:09;14.00;99.90
45953;DHT22;31662;52.262;10.522;2023-08-31T06:43:35;14.10;99.90
45953;DHT22;31662;52.262;10.522;2023-08-31T06:46:00;14.20;99.90
45953;DHT22;31662;52.262;10.522;2023-08-31T06:48:26;14.30;99.90
45953;DHT22;31662;52.262;10.522;2023-08-31T06:50:51;14.40;99.90
45953;DHT22;31662;52.262;10.522;2023-08-31T06:53:17;14.50;99.90
45953;DHT22;31662;52.262;10.522;2023-08-31T06:55:43;14.70;99.90
45953;DHT22;31662;52.262;10.522;2023-08-31T06:58:09;14.80;99.90
45953;DHT22;31662;52.262;10.522;2023-08-31T07:00:35;14.80;99.90
45953;DHT22;31662;52.262;10.522;2023-08-31T07:03:00;14.90;99.90
45953;DHT22;31662;52.262;10.522;2023-08-31T07:05:26;15.00;99.90
45953;DHT22;31662;52.262;10.522;2023-08-31T07:07:53;15.00;99.90
45953;DHT22;31662;52.262;10.522;2023-08-31T07:10:20;15.00;99.90
45953;DHT22;31662;52.262;10.522;2023-08-31T07:12:45;15.00;99.90
45953;DHT22;31662;52.262;10.522;2023-08-31T07:15:11;15.00;99.90
45953;DHT22;31662;52.262;10.522;2023-08-31T07:17:36;15.10;99.90
45953;DHT22;31662;52.262;10.522;2023-08-31T07:20:02;15.10;99.90
45953;DHT22;31662;52.262;10.522;2023-08-31T07:22:34;15.10;99.90
45953;DHT22;31662;52.262;10.522;2023-08-31T07:25:00;15.10;99.90
45953;DHT22;31662;52.262;10.522;2023-08-31T07:27:25;15.10;99.90
45953;DHT22;31662;52.262;10.522;2023-08-31T07:29:53;15.20;99.90
45953;DHT22;31662;52.262;10.522;2023-08-31T07:32:19;15.20;99.90
45953;DHT22;31662;52.262;10.522;2023-08-31T07:34:44;15.30;99.90
45953;DHT22;31662;52.262;10.522;2023-08-31T07:37:10;15.40;99.90
45953;DHT22;31662;52.262;10.522;2023-08-31T07:39:36;15.40;99.90
45953;DHT22;31662;52.262;10.522;2023-08-31T07:42:01;15.50;99.90
45953;DHT22;31662;52.262;10.522;2023-08-31T07:44:27;15.60;99.90
45953;DHT22;31662;52.262;10.522;2023-08-31T07:46:53;15.60;99.90
45953;DHT22;31662;52.262;10.522;2023-08-31T07:49:18;15.70;99.90
45953;DHT22;31662;52.262;10.522;2023-08-31T07:51:44;15.70;99.90
45953;DHT22;31662;52.262;10.522;2023-08-31T07:54:09;15.80;99.90
45953;DHT22;31662;52.262;10.522;2023-08-31T07:56:35;15.90;99.90
45953;DHT22;31662;52.262;10.522;2023-08-31T07:59:00;16.00;99.90
45953;DHT22;31662;52.262;10.522;2023-08-31T08:01:26;16.10;99.90
45953;DHT22;31662;52.262;10.522;2023-08-31T08:03:52;16.20;99.90
45953;DHT22;31662;52.262;10.522;2023-08-31T08:06:18;16.20;99.90
45953;DHT22;31662;52.262;10.522;2023-08-31T08:08:44;16.20;99.90
45953;DHT22;31662;52.262;10.522;2023-08-31T08:11:09;16.30;99.90
45953;DHT22;31662;52.262;10.522;2023-08-31T08:13:35;16.30;99.90
45953;DHT22;31662;52.262;10.522;2023-08-31T08:16:01;16.30;99.90
45953;DHT22;31662;52.262;10.522;2023-08-31T08:18:26;16.40;99.90
45953;DHT22;31662;52.262;10.522;2023-08-31T08:20:52;16.50;99.90
45953;DHT22;31662;52.262;10.522;2023-08-31T08:23:18;16.50;99.90
45953;DHT22;31662;52.262;10.522;2023-08-31T08:25:44;16.50;99.80
45953;DHT22;31662;52.262;10.522;2023-08-31T08:28:09;16.60;99.90
45953;DHT22;31662;52.262;10.522;2023-08-31T08:30:35;16.60;99.90
45953;DHT22;31662;52.262;10.522;2023-08-31T08:33:00;16.70;99.90
45953;DHT22;31662;52.262;10.522;2023-08-31T08:35:26;16.90;99.90
45953;DHT22;31662;52.262;10.522;2023-08-31T08:37:52;17.00;99.70
45953;DHT22;31662;52.262;10.522;2023-08-31T08:40:18;17.10;99.60
45953;DHT22;31662;52.262;10.522;2023-08-31T08:42:46;17.20;99.10
45953;DHT22;31662;52.262;10.522;2023-08-31T08:45:15;17.20;98.90
45953;DHT22;31662;52.262;10.522;2023-08-31T08:47:43;17.20;99.20
45953;DHT22;31662;52.262;10.522;2023-08-31T08:50:12;17.30;99.00
45953;DHT22;31662;52.262;10.522;2023-08-31T08:52:39;17.30;98.80
45953;DHT22;31662;52.262;10.522;2023-08-31T08:55:06;17.30;98.40
45953;DHT22;31662;52.262;10.522;2023-08-31T08:57:32;17.30;98.60
45953;DHT22;31662;52.262;10.522;2023-08-31T08:59:58;17.40;98.20
45953;DHT22;31662;52.262;10.522;2023-08-31T09:02:23;17.40;98.00
45953;DHT22;31662;52.262;10.522;2023-08-31T09:04:49;17.40;98.10
45953;DHT22;31662;52.262;10.522;2023-08-31T09:07:22;17.40;97.80
45953;DHT22;31662;52.262;10.522;2023-08-31T09:09:50;17.50;97.60
45953;DHT22;31662;52.262;10.522;2023-08-31T09:12:16;17.50;97.80
45953;DHT22;31662;52.262;10.522;2023-08-31T09:14:41;17.60;97.60
45953;DHT22;31662;52.262;10.522;2023-08-31T09:17:07;17.70;97.50
45953;DHT22;31662;52.262;10.522;2023-08-31T09:19:32;17.70;96.70
45953;DHT22;31662;52.262;10.522;2023-08-31T09:21:58;17.70;96.90
45953;DHT22;31662;52.262;10.522;2023-08-31T09:24:24;17.60;97.20
45953;DHT22;31662;52.262;10.522;2023-08-31T09:26:57;17.40;97.30
45953;DHT22;31662;52.262;10.522;2023-08-31T09:29:23;17.30;97.60
45953;DHT22;31662;52.262;10.522;2023-08-31T09:31:49;17.40;97.60
45953;DHT22;31662;52.262;10.522;2023-08-31T09:34:15;17.40;97.50
45953;DHT22;31662;52.262;10.522;2023-08-31T09:36:41;17.50;97.30
45953;DHT22;31662;52.262;10.522;2023-08-31T09:39:08;17.60;97.50
45953;DHT22;31662;52.262;10.522;2023-08-31T09:41:35;17.70;97.50
45953;DHT22;31662;52.262;10.522;2023-08-31T09:44:18;17.80;97.40
45953;DHT22;31662;52.262;10.522;2023-08-31T09:46:44;17.70;97.50
45953;DHT22;31662;52.262;10.522;2023-08-31T09:49:15;17.70;97.30
45953;DHT22;31662;52.262;10.522;2023-08-31T09:51:45;17.80;97.30
45953;DHT22;31662;52.262;10.522;2023-08-31T09:54:18;17.90;96.70
45953;DHT22;31662;52.262;10.522;2023-08-31T09:56:46;17.90;97.10
45953;DHT22;31662;52.262;10.522;2023-08-31T09:59:13;18.00;96.90
45953;DHT22;31662;52.262;10.522;2023-08-31T10:01:40;18.00;96.50
45953;DHT22;31662;52.262;10.522;2023-08-31T10:04:06;18.00;96.40
45953;DHT22;31662;52.262;10.522;2023-08-31T10:06:35;18.00;96.50
45953;DHT22;31662;52.262;10.522;2023-08-31T10:09:03;18.10;96.70
45953;DHT22;31662;52.262;10.522;2023-08-31T10:11:29;18.10;96.20
45953;DHT22;31662;52.262;10.522;2023-08-31T10:13:55;18.10;96.20
45953;DHT22;31662;52.262;10.522;2023-08-31T10:16:22;18.20;95.90
45953;DHT22;31662;52.262;10.522;2023-08-31T10:18:48;18.30;95.50
45953;DHT22;31662;52.262;10.522;2023-08-31T10:21:18;18.40;95.70
45953;DHT22;31662;52.262;10.522;2023-08-31T10:23:47;18.60;95.10
45953;DHT22;31662;52.262;10.522;2023-08-31T10:26:26;18.70;94.80
45953;DHT22;31662;52.262;10.522;2023-08-31T10:28:52;18.70;94.80
45953;DHT22;31662;52.262;10.522;2023-08-31T10:31:19;18.70;94.90
45953;DHT22;31662;52.262;10.522;2023-08-31T10:33:56;18.60;95.00
45953;DHT22;31662;52.262;10.522;2023-08-31T10:41:37;18.50;94.60
45953;DHT22;31662;52.262;10.522;2023-08-31T10:44:18;18.40;94.90
45953;DHT22;31662;52.262;10.522;2023-08-31T10:46:44;18.60;94.60
45953;DHT22;31662;52.262;10.522;2023-08-31T10:51:35;18.90;94.20
45953;DHT22;31662;52.262;10.522;2023-08-31T10:59:17;19.00;93.70
45953;DHT22;31662;52.262;10.522;2023-08-31T11:04:27;18.80;93.70
45953;DHT22;31662;52.262;10.522;2023-08-31T11:07:17;18.70;93.90
45953;DHT22;31662;52.262;10.522;2023-08-31T11:09:44;18.70;94.20
45953;DHT22;31662;52.262;10.522;2023-08-31T11:12:11;18.70;93.90
45953;DHT22;31662;52.262;10.522;2023-08-31T11:14:36;18.80;94.20
45953;DHT22;31662;52.262;10.522;2023-08-31T11:17:03;18.90;94.00
45953;DHT22;31662;52.262;10.522;2023-08-31T11:19:31;18.90;93.90
45953;DHT22;31662;52.262;10.522;2023-08-31T11:21:56;19.10;93.70
45953;DHT22;31662;52.262;10.522;2023-08-31T11:24:22;19.10;93.80
45953;DHT22;31662;52.262;10.522;2023-08-31T11:26:50;19.00;93.40
45953;DHT22;31662;52.262;10.522;2023-08-31T11:29:15;19.00;93.60
45953;DHT22;31662;52.262;10.522;2023-08-31T11:31:41;18.90;94.30
45953;DHT22;31662;52.262;10.522;2023-08-31T11:34:11;18.90;94.00
45953;DHT22;31662;52.262;10.522;2023-08-31T11:36:37;18.90;94.00
45953;DHT22;31662;52.262;10.522;2023-08-31T11:39:03;18.90;93.80
45953;DHT22;31662;52.262;10.522;2023-08-31T11:41:33;19.00;93.80
45953;DHT22;31662;52.262;10.522;2023-08-31T11:44:01;19.10;93.90
45953;DHT22;31662;52.262;10.522;2023-08-31T11:46:27;19.20;93.70
45953;DHT22;31662;52.262;10.522;2023-08-31T11:48:52;19.10;94.00
45953;DHT22;31662;52.262;10.522;2023-08-31T11:51:19;19.10;94.00
45953;DHT22;31662;52.262;10.522;2023-08-31T11:53:45;19.00;94.20
45953;DHT22;31662;52.262;10.522;2023-08-31T11:56:11;18.90;94.30
45953;DHT22;31662;52.262;10.522;2023-08-31T11:58:43;18.70;95.00
45953;DHT22;31662;52.262;10.522;2023-08-31T12:01:17;18.60;95.20
45953;DHT22;31662;52.262;10.522;2023-08-31T12:03:45;18.50;95.20
45953;DHT22;31662;52.262;10.522;2023-08-31T12:06:11;18.40;95.40
45953;DHT22;31662;52.262;10.522;2023-08-31T12:08:37;18.40;95.50
45953;DHT22;31662;52.262;10.522;2023-08-31T12:11:03;18.60;95.50
45953;DHT22;31662;52.262;10.522;2023-08-31T12:13:31;18.70;95.20
45953;DHT22;31662;52.262;10.522;2023-08-31T12:15:58;18.80;95.10
45953;DHT22;31662;52.262;10.522;2023-08-31T12:18:23;18.80;94.80
45953;DHT22;31662;52.262;10.522;2023-08-31T12:20:52;18.70;94.90
45953;DHT22;31662;52.262;10.522;2023-08-31T12:23:20;18.70;94.80
45953;DHT22;31662;52.262;10.522;2023-08-31T12:25:51;18.80;94.60
45953;DHT22;31662;52.262;10.522;2023-08-31T12:28:17;18.90;94.20
45953;DHT22;31662;52.262;10.522;2023-08-31T12:30:48;19.00;93.60
45953;DHT22;31662;52.262;10.522;2023-08-31T12:33:14;19.10;93.10
45953;DHT22;31662;52.262;10.522;2023-08-31T12:35:39;19.20;93.40
45953;DHT22;31662;52.262;10.522;2023-08-31T12:38:05;19.20;93.20
45953;DHT22;31662;52.262;10.522;2023-08-31T12:40:31;19.20;93.20
45953;DHT22;31662;52.262;10.522;2023-08-31T12:42:56;19.30;92.60
45953;DHT22;31662;52.262;10.522;2023-08-31T12:45:22;19.50;92.40
45953;DHT22;31662;52.262;10.522;2023-08-31T12:47:47;19.70;91.60
45953;DHT22;31662;52.262;10.522;2023-08-31T12:50:13;19.70;91.60
45953;DHT22;31662;52.262;10.522;2023-08-31T12:52:39;19.80;91.70
45953;DHT22;31662;52.262;10.522;2023-08-31T12:55:10;19.80;92.10
45953;DHT22;31662;52.262;10.522;2023-08-31T12:57:35;19.90;92.50
45953;DHT22;31662;52.262;10.522;2023-08-31T13:00:02;20.10;92.20
45953;DHT22;31662;52.262;10.522;2023-08-31T13:02:30;20.20;91.90
45953;DHT22;31662;52.262;10.522;2023-08-31T13:04:55;20.30;91.80
45953;DHT22;31662;52.262;10.522;2023-08-31T13:07:21;20.40;91.80
45953;DHT22;31662;52.262;10.522;2023-08-31T13:09:46;20.30;91.70
45953;DHT22;31662;52.262;10.522;2023-08-31T13:12:12;20.30;91.50
45953;DHT22;31662;52.262;10.522;2023-08-31T13:14:38;20.30;90.60
45953;DHT22;31662;52.262;10.522;2023-08-31T13:17:04;20.40;90.80
45953;DHT22;31662;52.262;10.522;2023-08-31T13:19:30;20.50;90.50
45953;DHT22;31662;52.262;10.522;2023-08-31T13:21:56;20.70;90.40
45953;DHT22;31662;52.262;10.522;2023-08-31T13:24:21;20.70;90.30
45953;DHT22;31662;52.262;10.522;2023-08-31T13:26:47;20.70;90.10
45953;DHT22;31662;52.262;10.522;2023-08-31T13:29:14;20.50;90.00
45953;DHT22;31662;52.262;10.522;2023-08-31T13:31:40;20.40;88.10
45953;DHT22;31662;52.262;10.522;2023-08-31T13:34:05;20.30;88.30
45953;DHT22;31662;52.262;10.522;2023-08-31T13:36:36;20.30;87.60
45953;DHT22;31662;52.262;10.522;2023-08-31T13:39:01;20.20;87.80
45953;DHT22;31662;52.262;10.522;2023-08-31T13:41:28;20.20;89.10
45953;DHT22;31662;52.262;10.522;2023-08-31T13:43:54;20.20;89.80
45953;DHT22;31662;52.262;10.522;2023-08-31T13:46:19;20.20;90.20
45953;DHT22;31662;52.262;10.522;2023-08-31T13:48:45;20.20;90.50
45953;DHT22;31662;52.262;10.522;2023-08-31T13:51:10;20.20;90.50
45953;DHT22;31662;52.262;10.522;2023-08-31T13:53:36;20.30;90.70
45953;DHT22;31662;52.262;10.522;2023-08-31T13:56:01;20.30;90.30
45953;DHT22;31662;52.262;10.522;2023-08-31T13:58:27;20.10;89.90
45953;DHT22;31662;52.262;10.522;2023-08-31T14:00:52;19.90;90.10
45953;DHT22;31662;52.262;10.522;2023-08-31T14:03:18;19.90;90.20
45953;DHT22;31662;52.262;10.522;2023-08-31T14:05:48;19.80;90.40
45953;DHT22;31662;52.262;10.522;2023-08-31T14:08:14;19.70;90.60
45953;DHT22;31662;52.262;10.522;2023-08-31T14:10:40;19.70;90.50
45953;DHT22;31662;52.262;10.522;2023-08-31T14:13:05;19.60;90.50
45953;DHT22;31662;52.262;10.522;2023-08-31T14:15:32;19.60;91.00
45953;DHT22;31662;52.262;10.522;2023-08-31T14:17:57;19.50;90.80
45953;DHT22;31662;52.262;10.522;2023-08-31T14:20:23;19.50;91.00
45953;DHT22;31662;52.262;10.522;2023-08-31T14:22:49;19.50;91.30
45953;DHT22;31662;52.262;10.522;2023-08-31T14:25:16;19.40;91.50
45953;DHT22;31662;52.262;10.522;2023-08-31T14:27:41;19.30;92.60
45953;DHT22;31662;52.262;10.522;2023-08-31T14:30:07;19.10;92.30
45953;DHT22;31662;52.262;10.522;2023-08-31T14:32:33;18.90;92.30
45953;DHT22;31662;52.262;10.522;2023-08-31T14:34:58;18.80;92.10
45953;DHT22;31662;52.262;10.522;2023-08-31T14:37:24;18.80;91.30
45953;DHT22;31662;52.262;10.522;2023-08-31T14:39:50;18.80;91.20
45953;DHT22;31662;52.262;10.522;2023-08-31T14:42:16;18.70;91.30
45953;DHT22;31662;52.262;10.522;2023-08-31T14:44:43;18.60;91.70
45953;DHT22;31662;52.262;10.522;2023-08-31T14:47:09;18.40;92.10
45953;DHT22;31662;52.262;10.522;2023-08-31T14:49:39;18.30;92.60
45953;DHT22;31662;52.262;10.522;2023-08-31T14:52:06;18.20;92.90
45953;DHT22;31662;52.262;10.522;2023-08-31T14:54:33;18.20;93.40
45953;DHT22;31662;52.262;10.522;2023-08-31T14:56:58;18.10;93.70
45953;DHT22;31662;52.262;10.522;2023-08-31T14:59:24;18.10;93.60
45953;DHT22;31662;52.262;10.522;2023-08-31T15:01:50;18.00;93.90
45953;DHT22;31662;52.262;10.522;2023-08-31T15:04:15;17.90;94.00
45953;DHT22;31662;52.262;10.522;2023-08-31T15:06:41;17.90;94.20
45953;DHT22;31662;52.262;10.522;2023-08-31T15:09:06;17.90;94.10
45953;DHT22;31662;52.262;10.522;2023-08-31T15:11:32;17.90;94.10
45953;DHT22;31662;52.262;10.522;2023-08-31T15:13:58;18.00;94.00
45953;DHT22;31662;52.262;10.522;2023-08-31T15:16:24;18.00;93.80
45953;DHT22;31662;52.262;10.522;2023-08-31T15:18:50;18.10;93.90
45953;DHT22;31662;52.262;10.522;2023-08-31T15:21:15;18.10;93.70
45953;DHT22;31662;52.262;10.522;2023-08-31T15:23:43;17.90;93.40
45953;DHT22;31662;52.262;10.522;2023-08-31T15:26:09;17.90;93.60
45953;DHT22;31662;52.262;10.522;2023-08-31T15:28:35;17.70;93.10
45953;DHT22;31662;52.262;10.522;2023-08-31T15:31:00;17.60;93.20
45953;DHT22;31662;52.262;10.522;2023-08-31T15:33:26;17.40;93.30